Time;durP1;ratioP1;P1;durP2;ratioP2;P2;SDS_P1;SDS_P2;PMS_P1;PMS_P2;Temp;Humidity;BMP_temperature;BMP_pressure;BME280_temperature;BME280_humidity;BME280_pressure;Samples;Min_cycle;Max_cycle;Signal;HPM_P1;HPM_P2
2021/12/06 00:01:58;;;;;;;14.10;8.50;;;3.10;99.90;;;;;;5053703;28;20040;-76
2021/12/06 00:04:27;;;;;;;12.23;9.15;;;3.20;99.90;;;;;;5053921;28;20021;-78
2021/12/06 00:06:58;;;;;;;10.93;8.68;;;3.20;99.90;;;;;;5054473;28;20075;-78
2021/12/06 00:09:26;;;;;;;17.40;8.95;;;3.20;99.90;;;;;;5050929;28;20035;-77
2021/12/06 00:12:01;;;;;;;11.63;8.75;;;3.20;99.90;;;;;;5052368;28;20036;-77
2021/12/06 00:14:29;;;;;;;10.15;8.70;;;3.20;99.90;;;;;;5051476;28;20028;-76
2021/12/06 00:16:56;;;;;;;10.40;8.55;;;3.20;99.90;;;;;;5051680;28;20051;-77
2021/12/06 00:19:22;;;;;;;12.40;8.27;;;3.30;99.90;;;;;;5037558;28;20025;-77
2021/12/06 00:21:49;;;;;;;9.90;8.88;;;3.30;99.90;;;;;;5054132;28;20078;-77
2021/12/06 00:24:14;;;;;;;9.43;8.45;;;3.30;99.90;;;;;;5029987;28;20040;-78
2021/12/06 00:26:40;;;;;;;13.35;9.35;;;3.30;99.90;;;;;;5035551;28;20025;-77
2021/12/06 00:29:05;;;;;;;12.23;8.50;;;3.30;99.90;;;;;;5050889;28;20043;-77
2021/12/06 00:31:33;;;;;;;10.48;8.75;;;3.30;99.90;;;;;;5049874;28;20032;-79
2021/12/06 00:34:06;;;;;;;8.63;7.72;;;3.30;99.90;;;;;;5050294;28;20054;-78
2021/12/06 00:36:34;;;;;;;10.07;9.07;;;3.40;99.90;;;;;;5059805;28;20031;-77
2021/12/06 00:39:01;;;;;;;9.82;8.23;;;3.30;99.90;;;;;;5054091;28;20035;-78
2021/12/06 00:41:27;;;;;;;11.60;8.65;;;3.30;99.90;;;;;;5046703;28;20021;-76
2021/12/06 00:43:53;;;;;;;12.73;8.70;;;3.30;99.90;;;;;;5053865;28;20387;-76
2021/12/06 00:46:20;;;;;;;9.85;8.82;;;3.20;99.90;;;;;;5055651;28;20385;-77
2021/12/06 00:48:45;;;;;;;10.93;8.48;;;3.30;99.90;;;;;;5036945;28;20439;-78
2021/12/06 00:51:12;;;;;;;12.57;9.23;;;3.30;99.90;;;;;;5056846;28;20033;-77
2021/12/06 00:53:39;;;;;;;9.30;8.30;;;3.30;99.90;;;;;;5054685;28;20082;-76
2021/12/06 00:56:05;;;;;;;10.05;8.85;;;3.30;99.90;;;;;;5036201;28;20532;-76
2021/12/06 00:58:31;;;;;;;14.38;9.43;;;3.30;99.90;;;;;;5057100;28;20110;-77
2021/12/06 01:00:57;;;;;;;12.02;9.82;;;3.30;99.90;;;;;;5072837;28;20005;-76
2021/12/06 01:03:26;;;;;;;13.25;9.68;;;3.40;99.90;;;;;;5069623;28;20028;-73
2021/12/06 01:05:52;;;;;;;11.50;9.13;;;3.40;99.90;;;;;;5059270;28;20025;-75
2021/12/06 01:08:18;;;;;;;10.80;8.93;;;3.40;99.90;;;;;;5073932;28;21009;-76
2021/12/06 01:10:44;;;;;;;10.38;8.95;;;3.30;99.90;;;;;;5061906;28;20021;-76
2021/12/06 01:13:10;;;;;;;12.52;9.65;;;3.30;99.90;;;;;;5038801;28;20032;-76
2021/12/06 01:15:38;;;;;;;10.00;8.73;;;3.30;99.90;;;;;;5054557;28;20393;-77
2021/12/06 01:18:05;;;;;;;10.73;8.82;;;3.30;99.90;;;;;;5049264;28;20033;-77
2021/12/06 01:20:38;;;;;;;11.77;8.27;;;3.30;99.90;;;;;;5034105;28;20032;-76
2021/12/06 01:23:07;;;;;;;13.15;9.10;;;3.30;99.90;;;;;;5050349;28;20041;-76
2021/12/06 01:39:17;;;;;;;11.32;10.18;;;3.20;99.90;;;;;;5058528;28;20044;-77
2021/12/06 01:41:21;;;;;;;12.00;9.98;;;3.30;99.90;;;;;;5041432;28;20058;-77
2021/12/06 01:44:03;;;;;;;10.52;9.27;;;3.30;99.90;;;;;;5052295;28;20458;-76
2021/12/06 01:46:31;;;;;;;11.77;10.75;;;3.30;99.90;;;;;;5051332;28;20017;-76
2021/12/06 01:48:57;;;;;;;11.40;9.40;;;3.30;99.90;;;;;;5059479;28;20027;-76
2021/12/06 01:51:23;;;;;;;11.80;9.32;;;3.30;99.90;;;;;;5061390;28;20076;-76
2021/12/06 01:53:48;;;;;;;11.25;10.15;;;3.20;99.90;;;;;;5059064;28;20082;-76
2021/12/06 01:56:14;;;;;;;10.98;9.98;;;3.30;99.90;;;;;;5062253;28;20116;-77
2021/12/06 01:58:42;;;;;;;11.45;9.95;;;3.30;99.90;;;;;;5063697;28;20056;-76
2021/12/06 02:01:08;;;;;;;11.13;9.85;;;3.30;99.90;;;;;;5060955;28;20017;-76
2021/12/06 02:03:33;;;;;;;13.68;10.60;;;3.30;99.90;;;;;;5052665;28;20025;-76
2021/12/06 02:05:59;;;;;;;15.25;9.77;;;3.40;99.90;;;;;;5057472;28;20407;-76
2021/12/06 02:08:24;;;;;;;14.18;10.07;;;3.40;99.90;;;;;;5053149;28;20025;-78
2021/12/06 02:10:53;;;;;;;13.10;11.23;;;3.30;99.90;;;;;;5038443;28;20484;-76
2021/12/06 02:13:20;;;;;;;10.80;9.70;;;3.30;99.90;;;;;;5056558;28;20017;-78
2021/12/06 02:15:50;;;;;;;11.95;10.55;;;3.30;99.90;;;;;;5051472;28;20032;-76
2021/12/06 02:18:39;;;;;;;12.23;10.25;;;3.20;99.90;;;;;;5055791;28;20488;-77
2021/12/06 02:21:12;;;;;;;13.90;10.90;;;3.20;99.90;;;;;;5048185;28;20026;-76
2021/12/06 02:23:38;;;;;;;11.55;10.02;;;3.20;99.90;;;;;;5054101;28;20502;-76
2021/12/06 02:26:04;;;;;;;11.90;10.23;;;3.10;99.90;;;;;;5056004;28;20028;-76
2021/12/06 02:28:29;;;;;;;11.13;10.02;;;3.20;99.90;;;;;;5054589;28;20507;-77
2021/12/06 02:30:55;;;;;;;12.32;10.13;;;3.20;99.90;;;;;;5053997;28;20028;-76
2021/12/06 02:33:22;;;;;;;11.55;10.30;;;3.10;99.90;;;;;;5043446;28;20029;-76
2021/12/06 02:35:47;;;;;;;11.88;10.80;;;3.10;99.90;;;;;;5056988;28;20113;-77
2021/12/06 02:38:13;;;;;;;11.90;10.65;;;3.10;99.90;;;;;;5071074;28;20021;-75
2021/12/06 02:40:40;;;;;;;12.02;10.82;;;3.10;99.90;;;;;;5066503;28;20022;-77
2021/12/06 02:43:07;;;;;;;10.25;9.25;;;3.20;99.90;;;;;;5023557;28;20111;-77
2021/12/06 02:45:33;;;;;;;10.32;9.35;;;3.10;99.90;;;;;;5052490;28;20018;-77
2021/12/06 02:48:02;;;;;;;14.80;11.38;;;3.10;99.90;;;;;;5065189;28;20029;-74
2021/12/06 02:50:33;;;;;;;10.63;9.50;;;3.20;99.90;;;;;;5075283;28;20005;-76
2021/12/06 02:52:59;;;;;;;11.80;10.18;;;3.10;99.90;;;;;;5061425;28;20081;-75
2021/12/06 02:55:36;;;;;;;13.73;10.02;;;3.10;99.90;;;;;;5043287;28;20044;-76
2021/12/06 02:58:16;;;;;;;15.70;8.70;;;3.10;99.90;;;;;;5056006;28;20072;-76
2021/12/06 03:00:49;;;;;;;10.35;9.00;;;3.10;99.90;;;;;;5060177;28;20557;-76
2021/12/06 03:03:19;;;;;;;12.68;10.02;;;3.10;99.90;;;;;;5052227;28;20033;-76
2021/12/06 03:05:46;;;;;;;12.45;10.00;;;3.10;99.90;;;;;;5051779;28;20017;-76
2021/12/06 03:08:12;;;;;;;12.57;10.05;;;3.10;99.90;;;;;;5053482;28;20361;-76
2021/12/06 03:10:38;;;;;;;13.80;11.10;;;3.20;99.90;;;;;;5055687;28;20103;-76
2021/12/06 03:13:04;;;;;;;11.02;9.93;;;3.20;99.90;;;;;;5054278;28;20119;-76
2021/12/06 03:15:29;;;;;;;12.75;10.80;;;3.20;99.90;;;;;;5055073;28;20104;-77
2021/12/06 03:17:56;;;;;;;13.10;11.82;;;3.30;99.90;;;;;;5055247;28;20028;-77
2021/12/06 03:20:21;;;;;;;12.65;11.35;;;3.40;99.90;;;;;;5052956;28;20496;-77
2021/12/06 03:22:47;;;;;;;13.75;12.32;;;3.50;99.90;;;;;;5043871;28;20029;-77
2021/12/06 03:25:15;;;;;;;13.80;12.50;;;3.60;99.90;;;;;;5054521;28;20536;-77
2021/12/06 03:27:40;;;;;;;14.50;13.10;;;3.60;99.90;;;;;;5059969;28;20047;-77
2021/12/06 03:30:09;;;;;;;13.82;12.63;;;3.60;99.90;;;;;;5037375;28;20092;-80
2021/12/06 03:32:34;;;;;;;13.88;12.20;;;3.60;99.90;;;;;;5058576;28;20709;-77
2021/12/06 03:35:00;;;;;;;13.57;12.35;;;3.70;99.90;;;;;;5060729;28;20037;-75
2021/12/06 03:37:26;;;;;;;14.07;12.57;;;3.70;99.90;;;;;;5060997;28;20021;-75
2021/12/06 03:39:52;;;;;;;13.75;12.15;;;3.70;99.90;;;;;;5058098;28;20080;-76
2021/12/06 03:42:20;;;;;;;13.57;12.27;;;3.70;99.90;;;;;;5070914;28;20029;-75
2021/12/06 03:44:47;;;;;;;14.40;13.13;;;3.80;99.90;;;;;;5074424;28;20029;-75
2021/12/06 03:47:21;;;;;;;15.57;14.10;;;3.70;99.90;;;;;;5049590;28;20067;-74
2021/12/06 03:49:46;;;;;;;15.98;14.57;;;3.70;99.90;;;;;;5057748;28;20013;-75
2021/12/06 03:52:13;;;;;;;17.15;15.35;;;3.50;99.90;;;;;;5077808;28;20019;-75
2021/12/06 03:54:40;;;;;;;16.55;14.90;;;3.70;99.90;;;;;;5065230;28;20017;-76
2021/12/06 03:57:06;;;;;;;17.58;15.15;;;3.50;99.90;;;;;;5045905;28;20034;-76
2021/12/06 03:59:31;;;;;;;15.98;14.48;;;3.50;99.90;;;;;;5055617;28;20106;-76
2021/12/06 04:01:57;;;;;;;15.82;14.38;;;3.70;99.90;;;;;;5058855;28;20021;-75
2021/12/06 04:04:23;;;;;;;16.70;15.10;;;3.60;99.90;;;;;;5076021;28;20029;-77
2021/12/06 04:06:48;;;;;;;17.65;14.85;;;3.70;99.90;;;;;;5069961;28;20010;-75
2021/12/06 04:09:15;;;;;;;17.65;15.82;;;3.50;99.90;;;;;;5075356;28;20025;-76
2021/12/06 04:11:41;;;;;;;17.23;15.43;;;3.50;99.90;;;;;;5069364;28;20032;-76
2021/12/06 04:14:07;;;;;;;16.42;14.82;;;3.30;99.90;;;;;;5050706;28;20032;-77
2021/12/06 04:16:34;;;;;;;16.85;15.23;;;3.30;99.90;;;;;;5059207;28;20528;-76
2021/12/06 04:18:59;;;;;;;17.55;15.85;;;3.30;99.90;;;;;;5064740;28;20077;-76
2021/12/06 04:21:27;;;;;;;17.70;16.00;;;3.50;99.90;;;;;;5057023;28;20051;-75
2021/12/06 04:23:53;;;;;;;21.33;18.23;;;3.40;99.90;;;;;;5077007;28;20013;-75
2021/12/06 04:26:19;;;;;;;18.70;16.80;;;3.40;99.90;;;;;;5077233;28;20074;-76
2021/12/06 04:28:48;;;;;;;16.60;14.93;;;3.30;99.90;;;;;;5058711;28;20036;-77
2021/12/06 04:31:15;;;;;;;18.58;16.65;;;3.40;99.90;;;;;;5045323;28;20044;-78
2021/12/06 04:33:41;;;;;;;18.02;16.13;;;3.50;99.90;;;;;;5070579;22;20515;-75
2021/12/06 04:36:07;;;;;;;19.33;17.42;;;3.70;99.90;;;;;;5056395;28;20033;-75
2021/12/06 04:38:33;;;;;;;20.35;18.13;;;3.70;99.90;;;;;;5051286;28;20041;-74
2021/12/06 04:40:59;;;;;;;22.25;18.10;;;3.50;99.90;;;;;;5051666;28;20032;-74
2021/12/06 04:43:24;;;;;;;18.88;16.98;;;3.40;99.90;;;;;;5049097;28;20014;-74
2021/12/06 04:45:50;;;;;;;20.88;17.60;;;3.40;99.90;;;;;;5033889;28;20045;-75
2021/12/06 04:48:16;;;;;;;24.90;20.10;;;3.30;99.90;;;;;;5043080;28;20029;-74
2021/12/06 04:50:42;;;;;;;21.85;17.80;;;3.30;99.90;;;;;;5050366;28;20037;-74
2021/12/06 04:53:35;;;;;;;22.52;17.98;;;3.30;99.90;;;;;;5043984;28;20112;-75
2021/12/06 04:56:26;;;;;;;22.00;17.40;;;3.30;99.90;;;;;;5034325;28;20029;-75
2021/12/06 04:59:10;;;;;;;22.75;19.52;;;3.30;99.90;;;;;;5044069;28;20070;-75
2021/12/06 05:01:36;;;;;;;24.63;19.77;;;3.30;99.90;;;;;;5030572;28;20098;-74
2021/12/06 05:04:11;;;;;;;24.67;19.63;;;3.30;99.90;;;;;;5044562;28;20046;-74
2021/12/06 05:06:40;;;;;;;24.50;19.77;;;3.30;99.90;;;;;;5050741;28;20021;-75
2021/12/06 05:09:14;;;;;;;24.27;19.10;;;3.30;99.90;;;;;;5042731;28;20061;-74
2021/12/06 05:11:41;;;;;;;24.38;19.67;;;3.30;99.90;;;;;;5028845;28;20036;-74
2021/12/06 05:14:06;;;;;;;23.10;19.55;;;3.30;99.90;;;;;;5053106;28;20534;-74
2021/12/06 05:16:34;;;;;;;29.55;20.33;;;3.30;99.90;;;;;;5051544;28;20108;-74
2021/12/06 05:19:00;;;;;;;28.25;20.38;;;3.30;99.90;;;;;;5051433;28;20446;-74
2021/12/06 05:21:26;;;;;;;25.77;19.23;;;3.30;99.90;;;;;;5050738;28;20104;-75
2021/12/06 05:23:51;;;;;;;24.30;18.52;;;3.40;99.90;;;;;;5045937;28;20469;-74
2021/12/06 05:26:17;;;;;;;23.10;17.98;;;3.40;99.90;;;;;;5049185;28;20087;-74
2021/12/06 05:28:45;;;;;;;22.10;17.65;;;3.40;99.90;;;;;;5035532;28;20025;-74
2021/12/06 05:31:17;;;;;;;22.23;17.75;;;3.30;99.90;;;;;;5025721;28;20060;-75
2021/12/06 05:33:46;;;;;;;25.77;19.85;;;3.30;99.90;;;;;;5043361;28;20040;-74
2021/12/06 05:36:12;;;;;;;22.90;18.67;;;3.30;99.90;;;;;;5042653;28;20025;-75
2021/12/06 05:38:38;;;;;;;22.58;18.50;;;3.30;99.90;;;;;;5043230;28;20037;-75
2021/12/06 05:41:03;;;;;;;21.48;17.55;;;3.20;99.90;;;;;;5056052;28;20103;-76
2021/12/06 05:43:29;;;;;;;22.17;18.33;;;3.20;99.90;;;;;;5045161;28;20060;-74
2021/12/06 05:45:55;;;;;;;23.13;17.35;;;3.30;99.90;;;;;;5049026;28;20036;-74
2021/12/06 05:48:21;;;;;;;23.05;16.92;;;3.20;99.90;;;;;;5042108;28;20034;-74
2021/12/06 05:50:47;;;;;;;22.70;17.25;;;3.20;99.90;;;;;;5041703;28;20036;-74
2021/12/06 05:53:14;;;;;;;24.13;18.58;;;3.20;99.90;;;;;;5041614;28;20083;-74
2021/12/06 05:55:40;;;;;;;18.25;15.82;;;3.20;99.90;;;;;;5040907;28;20061;-73
2021/12/06 05:58:08;;;;;;;23.25;18.00;;;3.20;99.90;;;;;;5054409;28;20032;-74
2021/12/06 06:00:35;;;;;;;24.55;17.80;;;3.20;99.90;;;;;;5054192;28;20025;-73
2021/12/06 06:03:03;;;;;;;21.42;17.40;;;3.20;99.90;;;;;;5033984;28;20025;-73
2021/12/06 06:05:29;;;;;;;20.85;17.42;;;3.20;99.90;;;;;;5046871;28;20025;-74
2021/12/06 06:07:55;;;;;;;23.45;18.48;;;3.30;99.90;;;;;;5057931;28;20017;-73
2021/12/06 06:10:20;;;;;;;22.35;17.63;;;3.20;99.90;;;;;;5049603;28;20052;-74
2021/12/06 06:12:46;;;;;;;21.80;16.77;;;3.20;99.90;;;;;;5052962;28;20075;-74
2021/12/06 06:15:12;;;;;;;22.50;17.48;;;3.20;99.90;;;;;;5050460;28;20039;-74
2021/12/06 06:17:43;;;;;;;21.20;16.58;;;3.20;99.90;;;;;;5055110;28;20028;-73
2021/12/06 06:20:34;;;;;;;24.48;18.77;;;3.20;99.90;;;;;;5054573;28;20045;-73
2021/12/06 06:23:00;;;;;;;18.52;16.08;;;3.20;99.90;;;;;;5050896;28;20051;-74
2021/12/06 06:25:25;;;;;;;21.20;16.42;;;3.20;99.90;;;;;;5034822;28;20497;-74
2021/12/06 06:27:51;;;;;;;19.05;16.70;;;3.20;99.90;;;;;;5047961;28;20500;-74
2021/12/06 06:30:17;;;;;;;21.52;18.02;;;3.30;99.90;;;;;;5051643;28;20115;-74
2021/12/06 06:32:44;;;;;;;24.00;18.45;;;3.30;99.90;;;;;;5052830;28;20484;-73
2021/12/06 06:35:10;;;;;;;23.13;17.80;;;3.20;99.90;;;;;;5055528;28;20023;-74
2021/12/06 06:37:36;;;;;;;19.75;16.83;;;3.20;99.90;;;;;;5051303;28;20025;-74
2021/12/06 06:40:04;;;;;;;26.52;20.33;;;3.20;99.90;;;;;;5047136;28;20444;-74
2021/12/06 06:42:29;;;;;;;22.27;18.00;;;3.20;99.90;;;;;;5048326;28;20021;-73
2021/12/06 06:44:56;;;;;;;21.30;18.25;;;3.20;99.90;;;;;;5067215;28;20009;-74
2021/12/06 06:47:22;;;;;;;25.20;19.17;;;3.20;99.90;;;;;;5062433;28;20083;-74
2021/12/06 06:49:48;;;;;;;24.15;18.55;;;3.20;99.90;;;;;;5045713;28;20026;-74
2021/12/06 06:52:14;;;;;;;23.48;18.58;;;3.30;99.90;;;;;;5049498;28;20103;-74
2021/12/06 06:54:40;;;;;;;25.10;18.67;;;3.30;99.90;;;;;;5040231;28;20040;-74
2021/12/06 06:57:05;;;;;;;24.63;18.05;;;3.30;99.90;;;;;;5038343;28;20034;-74
2021/12/06 06:59:31;;;;;;;26.85;19.30;;;3.30;99.90;;;;;;5050112;28;20037;-74
2021/12/06 07:01:57;;;;;;;27.35;20.75;;;3.30;99.90;;;;;;5042417;28;20029;-74
2021/12/06 07:04:23;;;;;;;22.27;18.27;;;3.30;99.90;;;;;;5049273;28;20021;-74
2021/12/06 07:06:49;;;;;;;26.30;20.35;;;3.30;99.90;;;;;;5073915;28;20035;-73
2021/12/06 07:09:15;;;;;;;23.85;17.98;;;3.20;99.90;;;;;;5071701;28;20346;-74
2021/12/06 07:11:44;;;;;;;26.10;19.15;;;3.20;99.90;;;;;;5043359;28;20105;-73
2021/12/06 07:14:11;;;;;;;26.17;19.08;;;3.10;99.90;;;;;;5051758;28;20044;-73
2021/12/06 07:16:36;;;;;;;24.55;18.23;;;3.20;99.90;;;;;;5047614;28;20059;-75
2021/12/06 07:19:03;;;;;;;27.88;20.30;;;3.20;99.90;;;;;;5046101;28;20068;-74
2021/12/06 07:21:29;;;;;;;26.77;19.17;;;3.20;99.90;;;;;;5036489;28;20460;-74
2021/12/06 07:23:55;;;;;;;25.67;19.48;;;3.20;99.90;;;;;;5048936;28;20044;-74
2021/12/06 07:26:21;;;;;;;28.50;20.25;;;3.10;99.90;;;;;;5044838;28;20029;-74
2021/12/06 07:28:49;;;;;;;25.45;19.15;;;3.10;99.90;;;;;;5050341;28;20028;-73
2021/12/06 07:31:15;;;;;;;30.13;19.20;;;3.20;99.90;;;;;;5035984;28;20381;-73
2021/12/06 07:33:42;;;;;;;26.90;18.20;;;3.10;99.90;;;;;;5054176;28;20025;-73
2021/12/06 07:36:09;;;;;;;28.67;19.58;;;3.10;99.90;;;;;;5054946;28;20036;-73
2021/12/06 07:38:37;;;;;;;26.67;18.40;;;3.10;99.90;;;;;;5053786;28;20036;-73
2021/12/06 07:41:08;;;;;;;24.90;19.27;;;3.10;99.90;;;;;;5051789;28;20021;-73
2021/12/06 07:43:34;;;;;;;;;;;3.20;99.90;;;;;;5052732;28;20058;-73
2021/12/06 07:45:59;;;;;;;24.83;17.48;;;3.20;99.90;;;;;;5045739;28;19908;-73
2021/12/06 07:48:25;;;;;;;25.27;19.20;;;3.30;99.90;;;;;;5054564;28;20087;-74
2021/12/06 07:50:51;;;;;;;25.55;18.45;;;3.30;99.90;;;;;;5052750;28;20029;-74
2021/12/06 07:53:16;;;;;;;28.75;19.05;;;3.50;99.90;;;;;;5034091;28;20028;-74
2021/12/06 07:55:42;;;;;;;23.20;17.88;;;3.30;99.90;;;;;;5050239;28;20206;-74
2021/12/06 07:58:09;;;;;;;23.98;17.40;;;3.30;99.90;;;;;;5048172;28;20044;-74
2021/12/06 08:00:39;;;;;;;28.63;18.35;;;3.40;99.90;;;;;;5047459;28;20033;-73
2021/12/06 08:03:07;;;;;;;27.13;19.40;;;3.40;99.90;;;;;;5020863;28;20033;-74
2021/12/06 08:05:34;;;;;;;31.08;17.90;;;3.40;99.90;;;;;;5042072;28;20549;-73
2021/12/06 08:08:07;;;;;;;23.00;15.90;;;3.30;99.90;;;;;;5045371;28;20397;-73
2021/12/06 08:10:37;;;;;;;26.73;17.55;;;3.40;99.90;;;;;;5040522;28;20022;-74
2021/12/06 08:13:04;;;;;;;26.60;19.30;;;3.40;99.90;;;;;;5058195;28;20108;-74
2021/12/06 08:15:30;;;;;;;28.23;18.17;;;3.50;99.90;;;;;;5056953;28;20495;-74
2021/12/06 08:17:56;;;;;;;22.10;16.13;;;3.40;99.90;;;;;;5054890;28;20071;-74
2021/12/06 08:20:22;;;;;;;28.60;17.80;;;3.40;99.90;;;;;;5061602;28;20013;-75
2021/12/06 08:22:48;;;;;;;24.80;18.42;;;3.60;99.90;;;;;;5053072;28;20025;-74
2021/12/06 08:25:14;;;;;;;26.45;18.05;;;3.60;99.90;;;;;;5053907;28;20025;-74
2021/12/06 08:27:40;;;;;;;27.17;18.25;;;3.70;99.90;;;;;;5052581;28;20100;-75
2021/12/06 08:30:07;;;;;;;24.92;16.85;;;3.70;99.90;;;;;;5051888;28;20037;-75
2021/12/06 08:32:35;;;;;;;26.10;18.05;;;3.80;99.90;;;;;;5043168;28;20132;-74
2021/12/06 08:35:01;;;;;;;27.10;17.42;;;3.70;99.90;;;;;;5046685;28;20039;-74
2021/12/06 08:37:27;;;;;;;21.98;16.05;;;3.80;99.90;;;;;;5032941;28;20024;-74
2021/12/06 08:39:53;;;;;;;22.35;16.70;;;3.90;99.90;;;;;;5041104;28;20384;-74
2021/12/06 08:42:19;;;;;;;24.52;16.20;;;3.90;99.90;;;;;;5043558;28;20023;-75
2021/12/06 08:44:45;;;;;;;24.30;15.75;;;3.90;99.90;;;;;;5051378;28;20108;-74
2021/12/06 08:47:10;;;;;;;23.85;17.60;;;4.00;99.90;;;;;;5052215;28;20489;-74
2021/12/06 08:49:36;;;;;;;24.23;17.17;;;4.00;99.90;;;;;;5044520;28;20028;-74
2021/12/06 08:52:03;;;;;;;19.80;15.68;;;4.00;99.90;;;;;;5043954;28;20029;-74
2021/12/06 08:54:29;;;;;;;27.00;16.10;;;4.00;99.90;;;;;;5037328;28;20112;-74
2021/12/06 08:56:57;;;;;;;23.27;17.02;;;4.10;99.90;;;;;;5043527;28;20032;-75
2021/12/06 08:59:23;;;;;;;21.58;15.25;;;4.20;99.90;;;;;;5052502;28;20119;-74
2021/12/06 09:01:49;;;;;;;20.25;16.63;;;4.10;99.90;;;;;;5050162;28;20033;-75
2021/12/06 09:04:16;;;;;;;17.40;14.23;;;4.10;99.90;;;;;;5064659;28;20695;-73
2021/12/06 09:06:47;;;;;;;15.75;13.35;;;4.10;99.90;;;;;;5061803;28;20021;-74
2021/12/06 09:09:13;;;;;;;;;;;4.20;99.90;;;;;;5064729;28;20195;-75
2021/12/06 09:11:40;;;;;;;17.33;13.85;;;4.40;99.90;;;;;;5050577;28;20390;-77
2021/12/06 09:14:08;;;;;;;20.00;14.50;;;4.50;99.90;;;;;;5051103;28;20032;-75
2021/12/06 09:16:36;;;;;;;20.90;14.77;;;4.50;99.90;;;;;;5056610;28;20029;-76
2021/12/06 09:19:03;;;;;;;21.00;14.77;;;4.40;99.90;;;;;;5038328;28;20017;-76
2021/12/06 09:21:29;;;;;;;21.48;15.02;;;4.30;99.90;;;;;;5056110;28;20384;-76
2021/12/06 09:23:58;;;;;;;18.10;14.45;;;4.30;99.90;;;;;;5056179;28;20028;-76
2021/12/06 09:26:24;;;;;;;20.08;14.80;;;4.40;99.90;;;;;;5035648;28;20013;-76
2021/12/06 09:28:50;;;;;;;21.55;15.20;;;4.50;99.90;;;;;;5036179;28;20030;-76
2021/12/06 09:31:18;;;;;;;19.15;14.88;;;4.60;99.90;;;;;;5025975;28;20029;-76
2021/12/06 09:33:44;;;;;;;23.20;15.07;;;4.60;99.90;;;;;;5053026;28;20037;-77
2021/12/06 09:36:12;;;;;;;21.38;15.98;;;4.70;99.90;;;;;;5046938;28;20037;-76
2021/12/06 09:38:39;;;;;;;38.22;16.65;;;4.50;99.90;;;;;;5038913;28;20029;-77
2021/12/06 09:41:14;;;;;;;29.02;16.30;;;4.50;99.90;;;;;;5037397;28;20025;-76
2021/12/06 09:43:42;;;;;;;29.83;15.27;;;4.60;99.90;;;;;;5050239;28;20021;-77
2021/12/06 09:46:10;;;;;;;20.15;14.13;;;4.80;99.90;;;;;;5051763;28;20384;-77
2021/12/06 09:48:38;;;;;;;20.90;14.48;;;4.80;99.90;;;;;;5036330;28;20040;-76
2021/12/06 09:51:09;;;;;;;19.52;15.20;;;4.70;99.90;;;;;;5052938;28;20033;-77
2021/12/06 09:53:37;;;;;;;19.35;14.40;;;4.60;99.90;;;;;;5043408;28;20037;-76
2021/12/06 09:56:08;;;;;;;20.73;15.18;;;4.60;99.90;;;;;;5048998;28;20029;-77
2021/12/06 09:58:35;;;;;;;19.27;12.95;;;4.60;99.90;;;;;;5036953;28;20209;-76
2021/12/06 10:01:12;;;;;;;20.35;13.70;;;4.60;99.90;;;;;;5047337;28;20025;-76
2021/12/06 10:03:39;;;;;;;20.30;14.57;;;4.70;99.90;;;;;;5046255;28;20029;-76
2021/12/06 10:06:05;;;;;;;22.45;13.68;;;4.70;99.90;;;;;;5033063;28;20029;-76
2021/12/06 10:08:37;;;;;;;22.35;14.38;;;4.70;99.90;;;;;;5035217;28;20028;-75
2021/12/06 10:11:05;;;;;;;19.80;14.02;;;4.70;99.90;;;;;;5055779;28;20033;-75
2021/12/06 10:13:31;;;;;;;20.70;13.57;;;4.80;99.90;;;;;;5055038;28;20024;-75
2021/12/06 10:15:57;;;;;;;19.33;13.73;;;4.70;99.90;;;;;;5043485;28;20080;-75
2021/12/06 10:18:23;;;;;;;23.88;15.73;;;4.80;99.90;;;;;;5054538;28;20059;-76
2021/12/06 10:20:48;;;;;;;24.00;14.27;;;5.00;99.90;;;;;;5048906;28;20409;-76
2021/12/06 10:23:15;;;;;;;19.33;14.30;;;5.00;99.90;;;;;;5060686;28;20029;-74
2021/12/06 10:25:45;;;;;;;20.75;13.98;;;4.90;99.90;;;;;;5071230;28;20066;-74
2021/12/06 10:28:11;;;;;;;18.40;14.50;;;4.90;99.90;;;;;;5071048;28;20052;-74
2021/12/06 10:30:51;;;;;;;19.85;15.20;;;5.00;99.90;;;;;;5055508;28;20032;-75
2021/12/06 10:33:20;;;;;;;21.42;13.45;;;4.90;99.90;;;;;;5102046;22;20139;-76
2021/12/06 10:35:52;;;;;;;22.02;13.77;;;5.00;99.90;;;;;;5090708;28;20032;-76
2021/12/06 10:38:28;;;;;;;17.23;13.57;;;5.00;99.90;;;;;;5096060;28;20438;-75
2021/12/06 10:41:00;;;;;;;18.08;12.77;;;5.10;99.90;;;;;;5096998;28;20077;-76
2021/12/06 10:43:26;;;;;;;12.45;10.27;;;5.30;99.90;;;;;;5084657;28;20021;-74
2021/12/06 10:45:57;;;;;;;14.05;11.93;;;5.30;99.90;;;;;;5072464;28;20047;-77
2021/12/06 10:48:29;;;;;;;14.50;10.82;;;5.30;99.90;;;;;;5079999;28;20063;-77
2021/12/06 10:50:54;;;;;;;15.05;10.60;;;5.40;99.90;;;;;;5076504;28;20021;-76
2021/12/06 10:53:27;;;;;;;15.07;10.82;;;5.30;99.90;;;;;;5073946;28;20476;-76
2021/12/06 10:55:56;;;;;;;14.45;9.95;;;5.30;99.90;;;;;;5056918;28;20025;-76
2021/12/06 10:58:27;;;;;;;15.07;10.07;;;5.30;99.90;;;;;;5060366;28;20025;-76
2021/12/06 11:01:06;;;;;;;16.35;11.32;;;5.30;99.90;;;;;;5090153;28;20013;-76
2021/12/06 11:03:45;;;;;;;14.02;10.18;;;5.30;99.90;;;;;;5093069;28;20028;-76
2021/12/06 11:06:25;;;;;;;13.73;9.60;;;5.40;99.90;;;;;;5084933;28;20032;-76
2021/12/06 11:08:55;;;;;;;15.77;10.82;;;5.30;99.90;;;;;;5074303;28;20009;-76
2021/12/06 11:11:36;;;;;;;15.60;10.07;;;5.40;99.90;;;;;;5085682;28;20024;-77
2021/12/06 11:14:06;;;;;;;9.38;7.53;;;5.50;99.90;;;;;;5076182;28;20032;-76
2021/12/06 11:16:39;;;;;;;13.35;8.95;;;5.50;99.90;;;;;;5074166;28;20060;-77
2021/12/06 11:19:09;;;;;;;10.48;8.25;;;5.60;99.90;;;;;;5081661;28;20028;-76
2021/12/06 11:21:38;;;;;;;12.30;8.93;;;5.60;99.90;;;;;;5081856;28;20025;-78
2021/12/06 11:24:29;;;;;;;13.73;7.78;;;5.60;99.90;;;;;;5063318;28;20024;-77
2021/12/06 11:26:54;;;;;;;11.73;6.63;;;5.70;99.90;;;;;;5064347;28;20073;-77
2021/12/06 11:29:31;;;;;;;6.45;5.10;;;5.90;99.90;;;;;;5080790;28;20073;-77
2021/12/06 11:32:17;;;;;;;7.63;5.30;;;5.90;99.90;;;;;;5064864;28;20450;-77
2021/12/06 11:34:52;;;;;;;7.07;5.35;;;5.90;99.90;;;;;;5075258;28;20045;-75
2021/12/06 11:37:23;;;;;;;8.07;6.00;;;5.90;99.90;;;;;;5053231;28;20031;-76
2021/12/06 11:40:00;;;;;;;8.73;5.65;;;6.00;99.90;;;;;;5063119;28;20075;-77
2021/12/06 11:42:26;;;;;;;7.28;5.97;;;6.00;99.90;;;;;;5079250;28;20496;-78
2021/12/06 11:44:51;;;;;;;7.53;6.25;;;6.00;99.90;;;;;;5081348;28;20023;-77
2021/12/06 11:47:19;;;;;;;6.22;5.13;;;6.00;99.90;;;;;;5077688;28;20052;-77
2021/12/06 11:49:54;;;;;;;5.60;4.72;;;6.10;99.90;;;;;;5077981;28;20031;-77
2021/12/06 11:52:29;;;;;;;7.70;4.97;;;6.10;99.90;;;;;;5068584;28;20025;-77
2021/12/06 11:54:58;;;;;;;7.07;4.53;;;6.30;99.90;;;;;;5053110;28;20028;-78
2021/12/06 11:57:34;;;;;;;5.95;4.13;;;6.30;99.90;;;;;;5075261;28;20084;-77
2021/12/06 12:00:14;;;;;;;5.53;4.55;;;6.40;99.90;;;;;;5069363;28;20452;-78
2021/12/06 12:02:52;;;;;;;4.40;3.47;;;6.30;99.90;;;;;;5075292;28;20020;-77
2021/12/06 12:05:33;;;;;;;5.07;3.67;;;6.50;99.90;;;;;;5057726;28;20025;-75
2021/12/06 12:08:17;;;;;;;5.17;4.07;;;6.40;99.90;;;;;;5069177;28;20012;-77
2021/12/06 12:10:53;;;;;;;10.32;6.93;;;6.30;99.90;;;;;;5064984;28;20346;-77
2021/12/06 12:13:23;;;;;;;13.52;7.07;;;6.60;99.90;;;;;;5065509;28;20017;-78
2021/12/06 12:15:50;;;;;;;9.00;7.03;;;6.70;99.90;;;;;;5077928;28;20032;-77
2021/12/06 12:18:16;;;;;;;8.95;7.00;;;6.70;99.90;;;;;;5061010;28;20048;-78
2021/12/06 12:20:41;;;;;;;7.22;6.15;;;6.60;99.90;;;;;;5074830;28;20477;-78
2021/12/06 12:23:09;;;;;;;11.50;6.43;;;6.70;99.90;;;;;;5058146;28;20401;-76
2021/12/06 12:25:41;;;;;;;8.50;7.30;;;6.70;99.90;;;;;;5075659;28;20017;-76
2021/12/06 12:30:47;;;;;;;13.38;8.75;;;6.70;99.90;;;;;;5075307;28;20120;-75
2021/12/06 12:33:13;;;;;;;8.35;6.45;;;6.60;99.90;;;;;;5075587;28;20098;-76
2021/12/06 12:35:41;;;;;;;6.43;5.28;;;6.40;99.90;;;;;;5076179;28;20020;-78
2021/12/06 12:38:10;;;;;;;5.93;4.90;;;6.50;99.90;;;;;;5057218;28;20503;-76
2021/12/06 12:40:48;;;;;;;6.13;4.95;;;6.30;99.90;;;;;;5074617;28;20040;-76
2021/12/06 12:43:34;;;;;;;7.43;5.30;;;6.20;99.90;;;;;;5057443;28;20361;-75
2021/12/06 12:46:05;;;;;;;12.27;8.45;;;6.40;99.90;;;;;;5064101;28;20125;-76
2021/12/06 12:49:04;;;;;;;14.38;9.25;;;6.70;99.90;;;;;;5072449;28;20020;-77
2021/12/06 12:51:43;;;;;;;12.35;9.07;;;6.70;99.90;;;;;;5060448;28;20043;-76
2021/12/06 12:54:25;;;;;;;14.00;9.32;;;6.80;99.90;;;;;;5074244;28;20383;-76
2021/12/06 12:57:05;;;;;;;12.13;8.88;;;6.80;99.90;;;;;;5050376;28;20404;-78
2021/12/06 12:59:49;;;;;;;10.60;8.50;;;6.70;99.90;;;;;;5085785;28;20017;-75
2021/12/06 13:02:32;;;;;;;9.85;8.20;;;6.70;99.90;;;;;;5092628;28;20029;-76
2021/12/06 13:04:57;;;;;;;10.45;8.02;;;6.80;99.90;;;;;;5076175;28;20048;-77